Time;durP1;ratioP1;P1;durP2;ratioP2;P2;SDS_P1;SDS_P2;PMS_P1;PMS_P2;Temp;Humidity;BMP_temperature;BMP_pressure;BME280_temperature;BME280_humidity;BME280_pressure;Samples;Min_cycle;Max_cycle;Signal;HPM_P1;HPM_P2
2022/01/01 00:00:41;;;;;;;15.25;11.48;;;3.70;99.90;;;;;;5094521;28;20626;-70
2022/01/01 00:03:08;;;;;;;16.67;13.57;;;3.70;99.90;;;;;;5095292;28;20196;-70
2022/01/01 00:05:36;;;;;;;15.52;12.60;;;3.60;99.90;;;;;;5094448;28;20727;-71
2022/01/01 00:08:05;;;;;;;15.77;12.18;;;3.60;99.90;;;;;;5094575;28;20234;-71
2022/01/01 00:10:32;;;;;;;15.13;11.90;;;3.60;99.90;;;;;;5094786;28;20592;-70
2022/01/01 00:12:59;;;;;;;14.82;11.38;;;3.60;99.90;;;;;;5095268;28;20237;-70
2022/01/01 00:15:26;;;;;;;13.75;12.02;;;3.60;99.90;;;;;;5093972;28;20670;-70
2022/01/01 00:17:53;;;;;;;15.70;12.57;;;3.60;99.90;;;;;;5094350;28;20246;-71
2022/01/01 00:20:20;;;;;;;18.05;13.65;;;3.60;99.90;;;;;;5094558;28;20685;-71
2022/01/01 00:22:48;;;;;;;17.40;13.30;;;3.60;99.90;;;;;;5095147;28;20252;-71
2022/01/01 00:25:16;;;;;;;17.95;13.60;;;3.50;99.90;;;;;;5095220;28;20207;-71
2022/01/01 00:27:42;;;;;;;21.33;16.13;;;3.50;99.90;;;;;;5094865;28;20726;-70
2022/01/01 00:30:11;;;;;;;23.52;16.60;;;3.50;99.90;;;;;;5094668;28;20716;-70
2022/01/01 00:32:39;;;;;;;26.20;20.20;;;3.40;99.90;;;;;;5094435;28;20207;-70
2022/01/01 00:35:07;;;;;;;29.58;19.80;;;3.40;99.90;;;;;;5094520;28;20260;-70
2022/01/01 00:37:34;;;;;;;24.88;18.27;;;3.30;99.90;;;;;;5094313;28;20223;-70
2022/01/01 00:40:02;;;;;;;23.83;17.40;;;3.20;99.90;;;;;;5094153;28;20222;-70
2022/01/01 00:42:29;;;;;;;25.33;18.60;;;3.20;99.90;;;;;;5094085;28;20195;-71
2022/01/01 00:44:56;;;;;;;19.33;15.20;;;3.20;99.90;;;;;;5094342;28;20195;-70
2022/01/01 00:47:23;;;;;;;21.45;16.13;;;3.20;99.90;;;;;;5093813;28;20721;-70
2022/01/01 00:49:50;;;;;;;18.67;14.40;;;3.10;99.90;;;;;;5093952;28;20290;-70
2022/01/01 00:52:17;;;;;;;19.30;15.35;;;3.10;99.90;;;;;;5093858;28;20218;-70
2022/01/01 00:54:43;;;;;;;21.08;15.82;;;3.10;99.90;;;;;;5093928;28;20246;-70
2022/01/01 00:57:12;;;;;;;21.70;15.63;;;3.10;99.90;;;;;;5093708;28;20677;-70
2022/01/01 00:59:39;;;;;;;21.10;16.35;;;3.00;99.90;;;;;;5093875;28;20187;-70
2022/01/01 01:02:08;;;;;;;19.70;15.48;;;3.00;99.90;;;;;;5094191;28;20227;-70
2022/01/01 01:04:35;;;;;;;17.10;14.55;;;3.00;99.90;;;;;;5094346;28;20195;-70
2022/01/01 01:07:02;;;;;;;18.63;13.95;;;2.90;99.90;;;;;;5093698;28;20630;-70
2022/01/01 01:09:29;;;;;;;16.70;13.82;;;2.90;99.90;;;;;;5094265;28;20244;-70
2022/01/01 01:11:56;;;;;;;16.15;13.38;;;2.90;99.90;;;;;;5093651;28;20273;-70
2022/01/01 01:14:27;;;;;;;17.73;13.85;;;2.90;99.90;;;;;;5093740;28;20203;-70
2022/01/01 01:16:55;;;;;;;15.18;12.55;;;2.90;99.90;;;;;;5094392;28;20191;-70
2022/01/01 01:19:22;;;;;;;14.60;12.05;;;2.90;99.90;;;;;;5094012;28;20238;-69
2022/01/01 01:21:50;;;;;;;17.48;13.05;;;2.80;99.90;;;;;;5093592;28;20219;-69
2022/01/01 01:24:18;;;;;;;17.80;13.35;;;2.80;99.90;;;;;;5094385;28;20257;-69
2022/01/01 01:26:49;;;;;;;16.70;13.35;;;2.80;99.90;;;;;;5093461;28;20199;-69
2022/01/01 01:29:16;;;;;;;14.95;12.23;;;2.70;99.90;;;;;;5092848;28;20562;-69
2022/01/01 06:56:43;;;;;;;4.60;4.30;;;1.40;99.90;;;;;;5633174;22;20238;-71
2022/01/01 06:59:09;;;;;;;4.35;4.05;;;1.40;99.90;;;;;;5086733;28;20291;-71
2022/01/01 07:01:37;;;;;;;3.83;3.63;;;1.40;99.90;;;;;;5095042;28;20226;-71
2022/01/01 07:04:04;;;;;;;3.78;3.55;;;1.40;99.90;;;;;;5095050;28;20286;-71
2022/01/01 07:06:32;;;;;;;4.22;3.92;;;1.40;99.90;;;;;;5094585;28;20223;-71
2022/01/01 07:08:58;;;;;;;3.78;3.55;;;1.40;99.90;;;;;;5094888;28;20199;-71
2022/01/01 07:11:25;;;;;;;4.57;4.32;;;1.40;99.90;;;;;;5095109;28;20642;-71
2022/01/01 07:13:54;;;;;;;3.83;3.53;;;1.40;99.90;;;;;;5094487;28;20674;-70
2022/01/01 07:16:21;;;;;;;3.88;3.58;;;1.50;99.90;;;;;;5094723;28;20302;-71
2022/01/01 07:18:48;;;;;;;3.67;3.47;;;1.50;99.90;;;;;;5094628;28;20214;-71
2022/01/01 07:21:15;;;;;;;3.65;3.38;;;1.50;99.90;;;;;;5094693;28;20290;-71
2022/01/01 07:23:42;;;;;;;3.72;3.42;;;1.60;99.90;;;;;;5094597;28;20294;-71
2022/01/01 07:26:10;;;;;;;3.42;3.22;;;1.60;99.90;;;;;;5094538;28;20240;-72
2022/01/01 07:28:36;;;;;;;3.30;3.10;;;1.50;99.90;;;;;;5094393;28;20669;-71
2022/01/01 07:31:05;;;;;;;3.72;3.47;;;1.50;99.90;;;;;;5094534;28;20272;-72
2022/01/01 07:33:32;;;;;;;2.97;2.80;;;1.50;99.90;;;;;;5093845;28;20285;-73
2022/01/01 07:35:58;;;;;;;3.58;3.38;;;1.40;99.90;;;;;;5094122;28;20765;-72
2022/01/01 07:38:25;;;;;;;3.60;3.40;;;1.50;99.90;;;;;;5094495;28;20287;-71
2022/01/01 07:40:53;;;;;;;3.08;2.88;;;1.40;99.90;;;;;;5094313;28;20290;-71
2022/01/01 07:43:20;;;;;;;3.10;2.90;;;1.40;99.90;;;;;;5094935;28;20268;-72
2022/01/01 07:45:47;;;;;;;3.83;3.55;;;1.40;99.90;;;;;;5094167;28;20420;-72
2022/01/01 07:48:15;;;;;;;3.45;3.15;;;1.40;99.90;;;;;;5094240;28;20290;-71
2022/01/01 07:50:42;;;;;;;3.30;3.10;;;1.40;99.90;;;;;;5094074;28;20296;-71
2022/01/01 07:53:10;;;;;;;4.10;3.80;;;1.40;99.90;;;;;;5094045;28;20314;-71
2022/01/01 07:55:37;;;;;;;4.15;3.75;;;1.40;99.90;;;;;;5093698;28;20727;-70
2022/01/01 07:58:05;;;;;;;4.13;3.72;;;1.40;99.90;;;;;;5093873;28;20293;-70
2022/01/01 08:00:32;;;;;;;4.43;4.03;;;1.30;99.90;;;;;;5094030;28;20202;-70
2022/01/01 08:02:59;;;;;;;4.75;4.45;;;1.20;99.90;;;;;;5093920;28;20202;-71
2022/01/01 08:05:28;;;;;;;4.30;4.00;;;1.20;99.90;;;;;;5094064;28;20295;-70
2022/01/01 08:07:54;;;;;;;4.97;4.57;;;1.20;99.90;;;;;;5093994;28;20291;-71
2022/01/01 08:10:23;;;;;;;5.13;4.72;;;1.20;99.90;;;;;;5093929;28;20629;-71
2022/01/01 08:12:50;;;;;;;5.25;4.75;;;1.20;99.90;;;;;;5093850;28;20218;-71
2022/01/01 08:15:17;;;;;;;4.70;4.25;;;1.30;99.90;;;;;;5093773;28;20205;-71
2022/01/01 08:17:44;;;;;;;4.22;3.92;;;1.30;99.90;;;;;;5093485;28;20310;-70
2022/01/01 08:20:12;;;;;;;5.32;4.82;;;1.40;99.90;;;;;;5093770;28;20286;-70
2022/01/01 08:22:40;;;;;;;4.55;4.13;;;1.50;99.90;;;;;;5093697;28;20282;-70
2022/01/01 08:25:08;;;;;;;4.88;4.47;;;1.50;99.90;;;;;;5093678;28;20210;-70
2022/01/01 08:27:34;;;;;;;4.50;4.10;;;1.60;99.90;;;;;;5093738;28;20301;-70
2022/01/01 08:30:01;;;;;;;4.63;4.22;;;1.70;99.90;;;;;;5093728;28;20337;-70
2022/01/01 08:32:28;;;;;;;4.22;3.88;;;1.80;99.90;;;;;;5093312;28;20645;-70
2022/01/01 08:34:55;;;;;;;4.40;4.10;;;1.80;99.90;;;;;;5093463;28;20737;-70
2022/01/01 08:37:22;;;;;;;4.60;4.30;;;1.90;99.90;;;;;;5093575;28;20642;-70
2022/01/01 08:39:50;;;;;;;4.38;3.97;;;2.00;99.90;;;;;;5093478;28;20286;-70
2022/01/01 08:42:17;;;;;;;4.75;4.35;;;2.20;99.90;;;;;;5093536;28;20231;-70
2022/01/01 08:44:44;;;;;;;4.65;4.25;;;2.40;99.90;;;;;;5094187;28;20290;-70
2022/01/01 08:47:11;;;;;;;4.80;4.38;;;2.40;99.90;;;;;;5097619;28;20227;-71
2022/01/01 08:49:38;;;;;;;4.60;4.25;;;2.60;99.90;;;;;;5097415;28;20289;-71
2022/01/01 08:52:06;;;;;;;4.65;4.25;;;2.70;99.90;;;;;;5097143;28;20685;-71
2022/01/01 08:54:34;;;;;;;4.20;3.78;;;2.90;99.90;;;;;;5097682;28;20199;-72
2022/01/01 08:57:03;;;;;;;3.80;3.50;;;3.00;99.90;;;;;;5097540;28;20215;-72
2022/01/01 08:59:30;;;;;;;4.53;4.13;;;3.10;99.90;;;;;;5097294;28;20293;-72
2022/01/01 09:01:57;;;;;;;4.53;4.13;;;3.20;99.90;;;;;;5097814;28;20642;-72
2022/01/01 09:04:24;;;;;;;5.32;4.82;;;3.30;99.90;;;;;;5097929;28;20195;-71
2022/01/01 09:06:51;;;;;;;6.20;5.10;;;3.20;99.90;;;;;;5097654;28;20306;-71
2022/01/01 09:09:18;;;;;;;5.35;4.88;;;3.20;99.90;;;;;;5097313;28;20290;-70
2022/01/01 09:11:45;;;;;;;5.63;4.80;;;3.10;99.90;;;;;;5097211;28;20317;-70
2022/01/01 09:14:15;;;;;;;5.97;5.40;;;3.10;99.90;;;;;;5097069;28;20289;-70
2022/01/01 09:16:42;;;;;;;6.63;5.82;;;3.10;99.90;;;;;;5097655;28;20227;-72
2022/01/01 09:19:09;;;;;;;7.05;5.70;;;3.10;99.90;;;;;;5097404;28;20289;-72
2022/01/01 09:21:35;;;;;;;5.75;5.15;;;3.10;99.90;;;;;;5097138;28;20282;-71
2022/01/01 09:24:02;;;;;;;5.30;4.80;;;3.20;99.90;;;;;;5097254;28;20286;-72
2022/01/01 09:26:29;;;;;;;5.30;4.80;;;3.30;99.90;;;;;;5098103;28;20298;-77
2022/01/01 09:28:56;;;;;;;5.18;4.68;;;3.50;99.90;;;;;;5097308;28;20293;-77
2022/01/01 09:31:24;;;;;;;6.18;4.85;;;3.60;99.90;;;;;;5097290;28;20226;-78
2022/01/01 09:33:51;;;;;;;5.47;4.97;;;3.80;99.90;;;;;;5096930;28;20305;-77
2022/01/01 09:36:18;;;;;;;5.55;4.93;;;3.90;99.90;;;;;;5096700;28;20314;-77
2022/01/01 09:38:45;;;;;;;4.65;4.25;;;4.00;99.90;;;;;;5096924;28;20290;-77
2022/01/01 09:41:14;;;;;;;5.75;5.13;;;4.10;99.90;;;;;;5096819;28;20199;-77
2022/01/01 09:43:42;;;;;;;6.07;5.47;;;4.00;99.90;;;;;;5096862;28;20601;-77
2022/01/01 09:46:13;;;;;;;6.40;5.75;;;4.10;99.90;;;;;;5096560;28;20223;-77
2022/01/01 09:48:41;;;;;;;5.72;5.13;;;4.10;99.90;;;;;;5097722;28;20263;-77
2022/01/01 09:51:09;;;;;;;5.57;4.90;;;4.10;99.90;;;;;;5096516;28;20294;-77
2022/01/01 09:53:36;;;;;;;5.35;4.85;;;4.20;99.90;;;;;;5096641;28;20219;-77
2022/01/01 09:56:05;;;;;;;5.28;4.88;;;4.20;99.90;;;;;;5096189;28;20306;-77
2022/01/01 09:58:34;;;;;;;5.60;5.00;;;4.30;99.90;;;;;;5096151;28;20207;-77
2022/01/01 10:01:02;;;;;;;6.75;5.78;;;4.40;99.90;;;;;;5096380;28;20285;-77
2022/01/01 10:03:30;;;;;;;6.25;5.57;;;4.40;99.90;;;;;;5096214;28;20203;-77
2022/01/01 10:06:00;;;;;;;6.10;5.50;;;4.50;99.90;;;;;;5096259;28;20219;-77
2022/01/01 10:08:28;;;;;;;6.47;5.80;;;4.60;99.90;;;;;;5096593;28;20245;-78
2022/01/01 10:10:55;;;;;;;6.53;5.70;;;4.60;99.90;;;;;;5096317;28;20231;-73
2022/01/01 10:13:30;;;;;;;5.68;5.18;;;4.70;99.90;;;;;;5096013;28;20302;-74
2022/01/01 10:15:58;;;;;;;6.93;6.30;;;4.80;99.90;;;;;;5096028;28;20305;-74
2022/01/01 10:18:27;;;;;;;6.00;5.43;;;4.80;99.90;;;;;;5096095;28;20282;-71
2022/01/01 10:20:57;;;;;;;6.93;4.90;;;4.80;99.90;;;;;;5095919;28;20294;-72
2022/01/01 10:23:28;;;;;;;5.85;5.25;;;4.90;99.90;;;;;;5096559;28;20268;-72
2022/01/01 10:28:55;;;;;;;5.07;4.68;;;5.00;99.90;;;;;;5095942;28;20174;-72
2022/01/01 10:31:23;;;;;;;4.68;4.30;;;5.00;99.90;;;;;;5095744;28;20235;-72
2022/01/01 10:33:50;;;;;;;4.32;3.92;;;5.10;99.90;;;;;;5095219;28;20720;-72
2022/01/01 10:36:20;;;;;;;4.72;4.32;;;5.00;99.90;;;;;;5095297;28;20765;-72
2022/01/01 10:38:49;;;;;;;4.53;4.13;;;5.20;99.90;;;;;;5095533;28;20199;-72
2022/01/01 10:41:17;;;;;;;4.70;4.30;;;5.30;99.90;;;;;;5095369;28;20290;-72
2022/01/01 10:43:46;;;;;;;4.25;3.95;;;5.40;99.90;;;;;;5095334;28;20221;-72
2022/01/01 10:46:16;;;;;;;3.60;3.30;;;5.60;99.90;;;;;;5095214;28;20314;-72
2022/01/01 10:48:55;;;;;;;4.00;3.72;;;5.60;99.90;;;;;;5095208;28;20244;-73
2022/01/01 10:51:24;;;;;;;4.00;3.70;;;5.70;99.90;;;;;;5095321;28;20184;-73
2022/01/01 10:54:05;;;;;;;4.50;4.20;;;5.80;99.90;;;;;;5095002;28;20245;-73
2022/01/01 10:56:38;;;;;;;5.70;5.13;;;5.90;99.90;;;;;;5095080;28;20219;-73
2022/01/01 10:59:07;;;;;;;4.93;4.53;;;5.90;99.90;;;;;;5094667;28;20577;-73
2022/01/01 11:01:37;;;;;;;5.15;4.38;;;6.00;99.90;;;;;;5095072;28;20654;-71
2022/01/01 11:04:05;;;;;;;4.20;3.85;;;6.20;99.90;;;;;;5095141;28;20203;-72
2022/01/01 11:06:33;;;;;;;3.83;3.63;;;6.30;99.90;;;;;;5095101;28;20223;-74
2022/01/01 11:09:02;;;;;;;3.75;3.50;;;6.40;99.90;;;;;;5093986;28;20658;-74
2022/01/01 11:11:35;;;;;;;3.25;3.03;;;6.50;99.90;;;;;;5095192;28;20231;-71
2022/01/01 11:14:03;;;;;;;3.17;2.97;;;6.60;99.90;;;;;;5094949;28;20633;-71
2022/01/01 11:16:29;;;;;;;3.00;2.80;;;6.70;99.90;;;;;;5094822;28;20647;-70
2022/01/01 11:18:57;;;;;;;2.63;2.53;;;6.80;99.90;;;;;;5094894;28;20290;-70
2022/01/01 11:21:24;;;;;;;2.70;2.53;;;6.80;99.90;;;;;;5095257;28;20299;-73
2022/01/01 11:23:52;;;;;;;3.58;3.28;;;6.90;99.90;;;;;;5094680;28;20285;-72
2022/01/01 11:26:22;;;;;;;3.63;3.40;;;6.90;99.90;;;;;;5095199;28;20314;-72
2022/01/01 11:28:48;;;;;;;4.07;3.08;;;6.90;99.90;;;;;;5095486;28;20199;-76
2022/01/01 11:31:17;;;;;;;3.17;2.97;;;7.00;99.90;;;;;;5094796;28;20234;-71
2022/01/01 11:33:45;;;;;;;2.60;2.50;;;7.00;99.90;;;;;;5095683;28;20635;-73
2022/01/01 11:36:25;;;;;;;3.13;2.72;;;7.10;99.90;;;;;;5095179;28;20697;-72
2022/01/01 11:38:54;;;;;;;2.75;2.65;;;7.10;99.90;;;;;;5095089;28;20187;-73
2022/01/01 11:41:25;;;;;;;3.00;2.85;;;7.20;99.90;;;;;;5098597;28;20199;-73
2022/01/01 11:43:54;;;;;;;2.88;2.78;;;7.30;99.90;;;;;;5096407;28;20700;-71
2022/01/01 11:46:23;;;;;;;3.95;3.60;;;7.40;99.90;;;;;;5093976;28;20219;-71
2022/01/01 11:48:54;;;;;;;4.20;3.90;;;7.50;99.90;;;;;;5094505;28;20290;-71
2022/01/01 11:51:33;;;;;;;4.13;3.72;;;7.60;99.90;;;;;;5094115;28;20709;-71
2022/01/01 11:54:18;;;;;;;2.58;2.38;;;7.70;99.90;;;;;;5094016;28;20298;-70
2022/01/01 11:57:08;;;;;;;3.03;2.83;;;7.70;99.90;;;;;;5093790;28;20251;-71
2022/01/01 11:59:46;;;;;;;2.67;2.47;;;7.80;99.90;;;;;;5093653;28;20303;-71
2022/01/01 12:02:30;;;;;;;2.60;2.50;;;7.90;99.90;;;;;;5094114;28;20270;-70
2022/01/01 12:05:10;;;;;;;2.22;2.15;;;8.00;99.90;;;;;;5093978;28;20180;-71
2022/01/01 12:07:59;;;;;;;2.70;2.60;;;8.00;99.90;;;;;;5093847;28;20314;-71
2022/01/01 12:10:32;;;;;;;1.80;1.70;;;8.10;99.90;;;;;;5089400;28;20246;-74
2022/01/01 12:13:02;;;;;;;2.08;1.98;;;8.20;99.90;;;;;;5094020;28;20213;-74
2022/01/01 12:15:35;;;;;;;2.10;2.00;;;8.20;99.90;;;;;;5093546;28;20299;-75
2022/01/01 12:18:04;;;;;;;1.90;1.80;;;8.30;99.90;;;;;;5093884;28;20270;-75
2022/01/01 12:20:34;;;;;;;1.90;1.80;;;8.30;99.90;;;;;;5093700;28;20289;-75
2022/01/01 12:23:04;;;;;;;1.55;1.55;;;8.40;99.90;;;;;;5093593;28;20366;-73
2022/01/01 12:25:33;;;;;;;1.88;1.77;;;8.40;99.90;;;;;;5093618;28;20203;-73
2022/01/01 12:28:04;;;;;;;1.38;1.38;;;8.40;99.90;;;;;;5093204;28;20294;-72
2022/01/01 12:30:36;;;;;;;1.50;1.50;;;8.50;99.90;;;;;;5093684;28;20219;-72
2022/01/01 12:33:03;;;;;;;1.50;1.50;;;8.50;99.90;;;;;;5093268;28;20225;-74
2022/01/01 12:35:45;;;;;;;1.30;1.30;;;8.60;99.90;;;;;;5093384;28;20252;-73
2022/01/01 12:38:15;;;;;;;1.30;1.30;;;8.60;99.90;;;;;;5094323;28;20270;-71
2022/01/01 12:41:00;;;;;;;1.05;1.05;;;8.60;99.90;;;;;;5094099;28;20239;-73
2022/01/01 12:43:29;;;;;;;1.10;1.10;;;8.60;99.90;;;;;;5094403;28;20274;-73
2022/01/01 12:45:57;;;;;;;0.90;0.90;;;8.60;99.90;;;;;;5094238;28;20305;-73
2022/01/01 12:48:26;;;;;;;1.00;1.00;;;8.60;99.90;;;;;;5094014;28;20238;-74
2022/01/01 12:51:01;;;;;;;1.00;1.00;;;8.60;99.90;;;;;;5094745;28;20286;-72
2022/01/01 12:53:30;;;;;;;1.02;1.02;;;8.70;99.90;;;;;;5093305;28;20290;-73
2022/01/01 12:56:06;;;;;;;0.98;0.98;;;8.70;99.90;;;;;;5093562;28;20280;-73
2022/01/01 12:58:36;;;;;;;1.00;1.00;;;8.70;99.90;;;;;;5093674;28;20298;-73
2022/01/01 13:01:12;;;;;;;0.88;0.88;;;8.70;99.90;;;;;;5094790;28;20211;-71
2022/01/01 13:03:39;;;;;;;0.90;0.90;;;8.70;99.90;;;;;;5093565;28;20636;-75
2022/01/01 13:06:09;;;;;;;1.00;1.00;;;8.60;99.90;;;;;;5095096;28;20306;-73
2022/01/01 13:08:41;;;;;;;1.15;1.05;;;8.60;99.90;;;;;;5099384;28;20191;-74
2022/01/01 13:11:13;;;;;;;0.73;0.73;;;8.70;99.90;;;;;;5098972;28;20207;-73
2022/01/01 13:13:42;;;;;;;0.70;0.70;;;8.60;99.90;;;;;;5099770;28;20226;-72
2022/01/01 13:16:09;;;;;;;0.75;0.75;;;8.70;99.90;;;;;;5097375;28;20252;-70
2022/01/01 13:18:36;;;;;;;0.60;0.60;;;8.70;99.90;;;;;;5097829;28;20203;-70
2022/01/01 13:21:05;;;;;;;0.68;0.68;;;8.70;99.90;;;;;;5097964;28;20229;-71
2022/01/01 13:23:32;;;;;;;0.90;0.90;;;8.70;99.90;;;;;;5097510;28;20200;-71
2022/01/01 13:26:00;;;;;;;0.80;0.80;;;8.70;99.90;;;;;;5097758;28;20273;-73
2022/01/01 13:28:30;;;;;;;0.60;0.60;;;8.70;99.90;;;;;;5098641;28;20195;-72
2022/01/01 13:31:00;;;;;;;0.70;0.70;;;8.70;99.90;;;;;;5099906;28;20199;-71
2022/01/01 13:33:29;;;;;;;0.82;0.82;;;8.70;99.90;;;;;;5102221;28;20306;-70
2022/01/01 13:35:58;;;;;;;0.80;0.80;;;8.70;99.90;;;;;;5102061;28;20238;-71
2022/01/01 13:38:28;;;;;;;0.93;0.93;;;8.70;99.90;;;;;;5102568;28;20739;-72
2022/01/01 13:40:57;;;;;;;0.70;0.70;;;8.70;99.90;;;;;;5102677;28;20192;-72
2022/01/01 13:43:27;;;;;;;0.60;0.60;;;8.70;99.90;;;;;;5101732;28;20643;-73
2022/01/01 13:46:23;;;;;;;0.73;0.73;;;8.70;99.90;;;;;;5102895;28;20276;-72
2022/01/01 13:48:51;;;;;;;0.90;0.90;;;8.70;99.90;;;;;;5098709;28;20230;-72
2022/01/01 13:51:21;;;;;;;0.77;0.77;;;8.60;99.90;;;;;;5102453;28;20199;-71
2022/01/01 13:53:50;;;;;;;0.60;0.60;;;8.60;99.90;;;;;;5101627;28;20200;-71
2022/01/01 13:56:23;;;;;;;0.63;0.63;;;8.60;99.90;;;;;;5102109;28;20219;-73
2022/01/01 13:58:53;;;;;;;0.70;0.70;;;8.60;99.90;;;;;;5101228;28;20229;-75
2022/01/01 14:01:25;;;;;;;0.75;0.75;;;8.50;99.90;;;;;;5103058;28;20282;-72
2022/01/01 14:03:54;;;;;;;0.70;0.70;;;8.50;99.90;;;;;;5101607;28;20184;-73
2022/01/01 14:06:25;;;;;;;0.63;0.63;;;8.50;99.90;;;;;;5100420;28;20245;-73
2022/01/01 14:08:59;;;;;;;0.77;0.77;;;8.50;99.90;;;;;;5096463;28;20242;-73
2022/01/01 14:11:31;;;;;;;0.70;0.70;;;8.40;99.90;;;;;;5096029;28;20195;-73
2022/01/01 14:14:06;;;;;;;0.70;0.70;;;8.40;99.90;;;;;;5096096;28;20247;-71
2022/01/01 14:16:44;;;;;;;0.70;0.70;;;8.40;99.90;;;;;;5096207;28;20215;-71
2022/01/01 14:19:16;;;;;;;0.68;0.68;;;8.40;99.90;;;;;;5095712;28;20275;-71
2022/01/01 14:21:43;;;;;;;0.60;0.60;;;8.30;99.90;;;;;;5095741;28;20203;-71
2022/01/01 14:24:13;;;;;;;0.70;0.70;;;8.30;99.90;;;;;;5095796;28;20294;-72
2022/01/01 14:26:45;;;;;;;0.70;0.70;;;8.20;99.90;;;;;;5095786;28;20385;-72
2022/01/01 14:29:13;;;;;;;0.75;0.75;;;8.20;99.90;;;;;;5095341;28;20670;-71
2022/01/01 14:31:42;;;;;;;0.60;0.60;;;8.20;99.90;;;;;;5095621;28;20294;-71
2022/01/01 14:34:13;;;;;;;0.50;0.50;;;8.20;99.90;;;;;;5095175;28;20697;-71
2022/01/01 14:36:42;;;;;;;0.70;0.70;;;8.10;99.90;;;;;;5095573;28;20215;-71
2022/01/01 14:39:09;;;;;;;0.80;0.80;;;8.10;99.90;;;;;;5095190;28;20202;-71
2022/01/01 14:41:36;;;;;;;0.60;0.60;;;8.10;99.90;;;;;;5095324;28;20195;-71
2022/01/01 14:44:03;;;;;;;0.70;0.70;;;8.10;99.90;;;;;;5094535;28;20262;-72
2022/01/01 14:46:32;;;;;;;0.90;0.90;;;8.00;99.90;;;;;;5095180;28;20310;-72
2022/01/01 14:49:08;;;;;;;0.60;0.60;;;8.00;99.90;;;;;;5095391;28;20203;-72
2022/01/01 14:51:44;;;;;;;0.82;0.82;;;7.90;99.90;;;;;;5094966;28;20679;-72
2022/01/01 14:54:28;;;;;;;0.60;0.60;;;7.90;99.90;;;;;;5095197;28;20218;-72
2022/01/01 14:57:07;;;;;;;0.50;0.50;;;7.80;99.90;;;;;;5095523;28;20310;-72
2022/01/01 14:59:35;;;;;;;0.90;0.90;;;7.80;99.90;;;;;;5094843;28;20741;-72
2022/01/01 15:02:03;;;;;;;0.57;0.57;;;7.80;99.90;;;;;;5095260;28;20290;-72
2022/01/01 15:04:32;;;;;;;0.63;0.63;;;7.70;99.90;;;;;;5094884;28;20223;-71
2022/01/01 15:07:00;;;;;;;0.60;0.60;;;7.70;99.90;;;;;;5094902;28;20262;-72
2022/01/01 15:09:31;;;;;;;0.70;0.70;;;7.60;99.90;;;;;;5094825;28;20249;-72
2022/01/01 15:11:58;;;;;;;0.80;0.80;;;7.60;99.90;;;;;;5095087;28;20290;-72
2022/01/01 15:14:26;;;;;;;0.60;0.60;;;7.50;99.90;;;;;;5094989;28;20637;-72
2022/01/01 15:16:56;;;;;;;0.70;0.70;;;7.50;99.90;;;;;;5094378;28;20302;-73
2022/01/01 15:19:23;;;;;;;0.60;0.60;;;7.40;99.90;;;;;;5094679;28;20298;-74
2022/01/01 15:21:56;;;;;;;0.70;0.70;;;7.30;99.90;;;;;;5094387;28;20270;-72
2022/01/01 15:24:28;;;;;;;0.60;0.60;;;7.30;99.90;;;;;;5094474;28;20180;-75
2022/01/01 15:26:56;;;;;;;0.60;0.60;;;7.20;99.90;;;;;;5094260;28;20660;-74
2022/01/01 15:29:34;;;;;;;0.80;0.80;;;7.20;99.90;;;;;;5094080;28;20290;-74
2022/01/01 15:34:53;;;;;;;0.95;0.95;;;7.10;99.90;;;;;;5094302;28;20280;-72
2022/01/01 15:37:24;;;;;;;0.80;0.80;;;7.00;99.90;;;;;;5094062;28;20254;-72
2022/01/01 15:39:59;;;;;;;1.08;1.00;;;7.00;99.90;;;;;;5094045;28;20195;-73
2022/01/01 15:42:26;;;;;;;0.75;0.75;;;6.90;99.90;;;;;;5094334;28;20194;-72
2022/01/01 15:44:53;;;;;;;1.02;1.02;;;6.80;99.90;;;;;;5094267;28;20249;-72
2022/01/01 15:47:20;;;;;;;0.90;0.90;;;6.70;99.90;;;;;;5093925;28;20655;-73
2022/01/01 15:49:47;;;;;;;0.80;0.80;;;6.70;99.90;;;;;;5093682;28;20289;-72
2022/01/01 15:52:19;;;;;;;0.80;0.80;;;6.60;99.90;;;;;;5093803;28;20625;-73
2022/01/01 15:54:47;;;;;;;0.80;0.80;;;6.60;99.90;;;;;;5093500;28;20203;-74
2022/01/01 15:57:18;;;;;;;1.00;1.00;;;6.50;99.90;;;;;;5094071;28;20306;-73
2022/01/01 16:00:05;;;;;;;0.70;0.70;;;6.50;99.90;;;;;;5093911;28;20275;-73
2022/01/01 16:02:44;;;;;;;0.75;0.75;;;6.40;99.90;;;;;;5094537;28;20191;-74
2022/01/01 16:05:20;;;;;;;0.70;0.70;;;6.30;99.90;;;;;;5093679;28;20266;-74
2022/01/01 16:07:50;;;;;;;0.80;0.80;;;6.20;99.90;;;;;;5093598;28;20584;-74
2022/01/01 16:10:20;;;;;;;0.80;0.80;;;6.20;99.90;;;;;;5093999;28;20237;-75
2022/01/01 16:12:51;;;;;;;0.82;0.82;;;6.10;99.90;;;;;;5093872;28;20670;-74
2022/01/01 16:15:22;;;;;;;1.10;1.10;;;6.10;99.90;;;;;;5094492;28;20620;-74
2022/01/01 16:17:52;;;;;;;1.00;1.00;;;6.00;99.90;;;;;;5093770;28;20302;-74
2022/01/01 16:20:20;;;;;;;0.82;0.82;;;6.00;99.90;;;;;;5093776;28;20195;-73
2022/01/01 16:22:47;;;;;;;1.30;1.20;;;6.00;99.90;;;;;;5093849;28;20195;-74
2022/01/01 16:25:17;;;;;;;1.40;1.30;;;5.90;99.90;;;;;;5093681;28;20286;-74
2022/01/01 16:27:46;;;;;;;1.10;1.10;;;5.90;99.90;;;;;;5093571;28;20309;-75
2022/01/01 16:30:13;;;;;;;1.58;1.48;;;5.80;99.90;;;;;;5093682;28;20282;-74
2022/01/01 16:32:41;;;;;;;1.50;1.50;;;5.80;99.90;;;;;;5093276;28;20294;-74
2022/01/01 16:35:09;;;;;;;1.25;1.20;;;5.70;99.90;;;;;;5093462;28;20238;-74
2022/01/01 16:37:36;;;;;;;1.40;1.40;;;5.70;99.90;;;;;;5093516;28;20305;-74
2022/01/01 16:40:06;;;;;;;1.10;1.10;;;5.70;99.90;;;;;;5093521;28;20196;-73
2022/01/01 16:42:38;;;;;;;1.15;1.15;;;5.60;99.90;;;;;;5093648;28;20199;-74
2022/01/01 16:45:08;;;;;;;1.30;1.30;;;5.60;99.90;;;;;;5093579;28;20364;-74
2022/01/01 16:47:39;;;;;;;0.90;0.90;;;5.60;99.90;;;;;;5093716;28;20261;-73
2022/01/01 16:50:11;;;;;;;0.90;0.90;;;5.50;99.90;;;;;;5093541;28;20262;-71
2022/01/01 16:52:46;;;;;;;0.85;0.85;;;5.50;99.90;;;;;;5093536;28;20285;-70
2022/01/01 16:55:20;;;;;;;1.00;1.00;;;5.50;99.90;;;;;;5093393;28;20298;-70
2022/01/01 16:57:49;;;;;;;0.90;0.90;;;5.40;99.90;;;;;;5093265;28;20324;-70
2022/01/01 17:00:18;;;;;;;0.80;0.80;;;5.40;99.90;;;;;;5093218;28;20183;-70
2022/01/01 17:02:53;;;;;;;0.88;0.88;;;5.30;99.90;;;;;;5093147;28;20670;-70
2022/01/01 17:05:21;;;;;;;0.90;0.90;;;5.20;99.90;;;;;;5093476;28;20599;-70
2022/01/01 17:07:48;;;;;;;0.90;0.90;;;5.20;99.90;;;;;;5097269;28;20788;-69
2022/01/01 17:10:17;;;;;;;0.98;0.98;;;5.10;99.90;;;;;;5097352;28;20605;-69
2022/01/01 17:12:45;;;;;;;0.90;0.90;;;5.10;99.90;;;;;;5097356;28;20206;-69
2022/01/01 17:15:12;;;;;;;0.73;0.73;;;5.00;99.90;;;;;;5096896;28;20778;-69
2022/01/01 17:17:52;;;;;;;0.82;0.82;;;4.90;99.90;;;;;;5096912;28;20218;-69
2022/01/01 17:20:24;;;;;;;1.00;1.00;;;4.90;99.90;;;;;;5097401;28;20191;-69
2022/01/01 17:22:55;;;;;;;0.70;0.70;;;4.80;99.90;;;;;;5096964;28;20282;-69
2022/01/01 17:25:26;;;;;;;0.68;0.68;;;4.80;99.90;;;;;;5097097;28;20215;-69
2022/01/01 17:28:00;;;;;;;0.90;0.90;;;4.80;99.90;;;;;;5097036;28;20234;-70
2022/01/01 17:30:29;;;;;;;0.77;0.77;;;4.70;99.90;;;;;;5096981;28;20285;-70
2022/01/01 17:33:09;;;;;;;0.70;0.70;;;4.70;99.90;;;;;;5096734;28;20274;-70
2022/01/01 17:35:53;;;;;;;0.75;0.75;;;4.70;99.90;;;;;;5096774;28;20206;-70
2022/01/01 17:41:14;;;;;;;0.80;0.80;;;4.60;99.90;;;;;;5096914;28;20186;-70
2022/01/01 17:43:41;;;;;;;0.90;0.90;;;4.50;99.90;;;;;;5096393;28;20647;-69
2022/01/01 17:46:08;;;;;;;1.10;1.10;;;4.50;99.90;;;;;;5096603;28;20306;-69
2022/01/01 17:48:44;;;;;;;0.70;0.70;;;4.50;99.90;;;;;;5096703;28;20294;-69
2022/01/01 17:51:13;;;;;;;0.70;0.70;;;4.40;99.90;;;;;;5096313;28;20619;-69
2022/01/01 17:53:42;;;;;;;0.90;0.90;;;4.40;99.90;;;;;;5096501;28;20203;-69
2022/01/01 17:56:10;;;;;;;1.02;1.02;;;4.40;99.90;;;;;;5096353;28;20223;-69
2022/01/01 17:58:39;;;;;;;0.93;0.93;;;4.30;99.90;;;;;;5096050;28;20741;-69
2022/01/01 18:01:07;;;;;;;1.10;1.10;;;4.30;99.90;;;;;;5095936;28;20294;-69
2022/01/01 18:03:37;;;;;;;1.02;1.02;;;4.30;99.90;;;;;;5096267;28;20290;-69
2022/01/01 18:06:07;;;;;;;0.90;0.90;;;4.20;99.90;;;;;;5096354;28;20306;-70
2022/01/01 18:08:36;;;;;;;0.95;0.95;;;4.20;99.90;;;;;;5096333;28;20282;-70
2022/01/01 18:11:04;;;;;;;1.30;1.30;;;4.20;99.90;;;;;;5096420;28;20290;-69
2022/01/01 18:13:39;;;;;;;0.85;0.85;;;4.10;99.90;;;;;;5095960;28;20705;-70
2022/01/01 18:16:08;;;;;;;1.10;1.10;;;4.10;99.90;;;;;;5096320;28;20223;-69
2022/01/01 18:18:48;;;;;;;0.90;0.90;;;4.10;99.90;;;;;;5095868;28;20199;-69
2022/01/01 18:21:15;;;;;;;1.17;1.17;;;4.10;99.90;;;;;;5095820;28;20738;-69
2022/01/01 18:23:45;;;;;;;0.93;0.93;;;4.10;99.90;;;;;;5095795;28;20294;-68
2022/01/01 18:26:13;;;;;;;0.98;0.98;;;4.10;99.90;;;;;;5095687;28;20223;-68
2022/01/01 18:28:40;;;;;;;1.10;1.10;;;4.10;99.90;;;;;;5096073;28;20196;-68
2022/01/01 18:31:09;;;;;;;1.10;1.10;;;4.00;99.90;;;;;;5095728;28;20290;-68
2022/01/01 18:33:38;;;;;;;1.05;1.05;;;4.00;99.90;;;;;;5095754;28;20290;-70
2022/01/01 18:36:09;;;;;;;0.90;0.90;;;4.00;99.90;;;;;;5095515;28;20219;-70
2022/01/01 18:38:36;;;;;;;1.30;1.20;;;4.00;99.90;;;;;;5096060;28;20304;-68
2022/01/01 18:41:05;;;;;;;1.40;1.40;;;4.00;99.90;;;;;;5095715;28;20291;-68